Decoded Metar for EPPO (POZNAN in POLAND) (IATA:POZ) | Meteo·Mobile Aviation Weather
aviador You're here:

EPPO Decoded Metar

POZNAN in POLAND
Report Time2019-03-23 09:00:00
UTC Time2019-03-23 09:17:19
Flight Rules vfr VFR
Wind200° at 08 kt
W.Decomp.*RWY 28: 0.8 kt HW 8 kt LCW
W.Rank200° ranks 17
Current wind is above 200° avg. (5.5)
Visibility9000 m
Phenomena:N/A
Clouds:N/A
Expected CloudBase > 2,400 ft AGL from Temp-Dew spread
CeilingNone
Temp13°C (ISA -1)
Dew Point07°C (67% RH)
AAT9.4°C
QNH1026 hPa
Density Alt-164 ft
Elevation302 ft
Report Wrong Elevation
Raw Report
EPPO 230900Z 20008KT 9000 NSC 13/07 Q1026=

Extra information for EPPO:More info

Metar Taf Metar & Taf Last 4 Metars F.Rules Stats Wind Profile Meteogram Temp Stats Airport Information Weather charts Add Link Nearby VenuesMetar ALERT Operation Metar Decoded Social comments